East Lyme, CT (06333)

8:17 PM EST on December 24, 2014 (GMT -0500)
Village Drive | Change Station
CLOSE
Current Station
Personal Weather Station
Location: East Lyme, CT
Elevation: 170 ft
Nearby Weather Stations
Active Advisory: Dense Fog Advisory Active Notice: Record Report

Elev 170 ft 41.38 °N, 72.22 °W | Updated 8 seconds ago

Rain
Rain
59.8 °F
Feels Like 59.8 °F
N
0.0
Wind Variable Wind from West
Gusts 4.0 mph

Today
High -- | Low -- °F
--% Chance of Precip.
Yesterday
High -- | Low -- °F
Precip. -- in
7:12 AM 4:24 PM
Waxing Crescent, 12% visible
Pressure 29.66 in
Visibility 0.5 miles
Clouds Mostly Cloudy 500 ft
Overcast 1500 ft
Dew Point 60 °F
Humidity 99%
Rainfall 0.91 in
Snow Depth Not available.
UV 0 out of 12
Pollen .10 out of 12
Air Quality Not available.
Flu Activity Not available.
SPECI KGON 250108Z 17013KT 1/2SM R05/3500V4000FT -RA FG BKN005 OVC015 12/12 A2966 RMK AO2 PRESFR P0000 T01170117

More Conditions Fewer Conditions

Pressure 29.66 in
Visibility 0.5 miles
Clouds Mostly Cloudy 500 ft
Overcast 1500 ft
Dew Point 60 °F
Humidity 99%
Rainfall 0.91 in
Snow Depth Not available.
UV 0 out of 12
Pollen .10 out of 12
Air Quality Not available.
Flu Activity Not available.
SPECI KGON 250108Z 17013KT 1/2SM R05/3500V4000FT -RA FG BKN005 OVC015 12/12 A2966 RMK AO2 PRESFR P0000 T01170117

More Conditions Fewer Conditions

10-Day Weather Forecast

Almanac

Astronomy

Dec. 24, 2014 Rise Set
Actual Time
Civil Twilight
Nautical Twilight
Astronomical Twilight
Moon
Length of Visible Light
Length of Day
Tomorrow will be .
, % of the Moon is Illuminated

Today's Extremes

State Highs State Lows

Community

WunderPhotos

Upload Photos

1,780,203 photos uploaded!

WunderBlogs® & News

Nearby

Air Quality

  Air Quality AQ Index Pollutant
Not available.

Snow Depth

Station Depth Elevation

Earthquake Activity

City Distance Mag. Time & Date
Minimum magnitude displayed is 2.5.

Coastal Water Temperatures

Place Temperature

Nearby Weather Stations